Time;durP1;ratioP1;P1;durP2;ratioP2;P2;SDS_P1;SDS_P2;PMS_P1;PMS_P2;Temp;Humidity;BMP_temperature;BMP_pressure;BME280_temperature;BME280_humidity;BME280_pressure;Samples;Min_cycle;Max_cycle;Signal;HPM_P1;HPM_P2
2022/06/24 00:00:37;;;;;;;;;4.75;4.50;;;;;25.05;50.59;100685.94;2384602;28;45219;-82
2022/06/24 00:01:59;;;;;;;;;4.00;4.00;;;;;25.02;50.07;100684.41;2384323;28;45403;-82
2022/06/24 00:03:17;;;;;;;;;3.75;3.75;;;;;24.99;50.37;100678.44;2384602;28;44671;-82
2022/06/24 00:04:30;;;;;;;;;6.50;5.00;;;;;24.97;50.64;100692.03;2384233;28;45424;-82
2022/06/24 00:05:41;;;;;;;;;3.25;3.25;;;;;24.99;50.84;100687.34;2383902;28;45441;-82
2022/06/24 00:06:52;;;;;;;;;4.00;4.00;;;;;24.99;50.05;100690.03;2384392;28;46219;-83
2022/06/24 00:08:05;;;;;;;;;4.25;4.25;;;;;24.99;50.55;100686.50;2393058;28;45413;-82
2022/06/24 00:09:17;;;;;;;;;7.50;5.00;;;;;24.95;49.99;100681.44;2389358;28;47604;-82
2022/06/24 00:10:32;;;;;;;;;4.00;4.00;;;;;24.95;50.25;100689.50;2383788;28;45465;-83
2022/06/24 00:11:43;;;;;;;;;5.75;4.00;;;;;24.94;50.90;100687.78;2382959;28;46251;-82
2022/06/24 00:12:53;;;;;;;;;3.50;3.50;;;;;24.92;51.03;100687.09;2384304;28;45235;-83
2022/06/24 00:14:09;;;;;;;;;5.75;5.75;;;;;24.89;50.16;100682.00;2384273;28;45922;-82
2022/06/24 00:15:24;;;;;;;;;3.75;3.75;;;;;24.90;50.32;100690.91;2384572;28;45438;-83
2022/06/24 00:16:54;;;;;;;;;5.50;5.00;;;;;24.89;50.82;100687.38;2384257;28;45723;-83
2022/06/24 00:18:13;;;;;;;;;4.50;4.00;;;;;24.86;50.42;100682.31;2384447;28;44747;-84
2022/06/24 00:19:25;;;;;;;;;3.75;3.00;;;;;24.87;50.58;100675.94;2383253;28;45476;-84
2022/06/24 00:20:44;;;;;;;;;4.25;4.25;;;;;24.88;51.07;100683.00;2384503;28;45163;-84
2022/06/24 00:21:58;;;;;;;;;3.00;2.25;;;;;24.87;51.18;100680.44;2383578;28;45488;-85
2022/06/24 00:23:08;;;;;;;;;3.75;3.75;;;;;24.85;51.22;100680.59;2384365;28;45238;-87
2022/06/24 00:24:22;;;;;;;;;6.25;3.00;;;;;24.84;51.48;100681.63;2384090;28;46387;-87
2022/06/24 00:25:36;;;;;;;;;4.25;2.50;;;;;24.82;51.38;100676.38;2392773;28;45420;-87
2022/06/24 00:26:47;;;;;;;;;3.25;3.25;;;;;24.82;51.21;100679.06;2389868;28;46322;-85
2022/06/24 00:28:03;;;;;;;;;3.50;3.50;;;;;24.84;50.88;100678.94;2384428;28;44809;-87
2022/06/24 00:29:16;;;;;;;;;5.50;4.00;;;;;24.84;50.57;100681.63;2392427;28;48181;-87
2022/06/24 00:30:27;;;;;;;;;4.00;4.00;;;;;24.85;50.77;100683.28;2383764;28;45247;-88
2022/06/24 00:31:38;;;;;;;;;4.00;4.00;;;;;24.84;50.88;100681.63;2380613;28;48204;-87
2022/06/24 00:32:48;;;;;;;;;3.50;3.50;;;;;24.84;51.26;100676.25;2383650;28;45506;-86
2022/06/24 00:33:58;;;;;;;;;5.50;4.00;;;;;24.84;50.91;100678.94;2385198;28;46429;-86
2022/06/24 00:35:12;;;;;;;;;3.75;3.50;;;;;24.84;50.84;100681.63;2383559;28;45379;-85
2022/06/24 00:36:23;;;;;;;;;5.00;4.00;;;;;24.84;51.19;100684.31;2391865;28;47863;-88
2022/06/24 00:37:34;;;;;;;;;6.00;4.25;;;;;24.84;50.88;100682.44;2390233;28;45273;-89
2022/06/24 00:38:51;;;;;;;;;2.25;2.25;;;;;24.85;50.65;100677.91;2392018;28;47160;-89
2022/06/24 00:40:23;;;;;;;;;4.50;3.50;;;;;24.84;51.22;100679.75;2389275;28;45448;-88
2022/06/24 00:41:35;;;;;;;;;3.25;3.00;;;;;24.84;50.87;100687.00;2379567;28;46211;-89
2022/06/24 00:42:47;;;;;;;;;4.00;3.00;;;;;24.82;51.44;100679.06;2374214;28;44612;-89
2022/06/24 00:44:00;;;;;;;;;4.50;3.75;;;;;24.82;50.95;100684.44;2376791;28;48248;-87
2022/06/24 00:45:41;;;;;;;;;2.00;1.50;;;;;24.84;51.68;100687.81;2392957;28;45311;-88
2022/06/24 00:46:52;;;;;;;;;1.50;0.25;;;;;24.84;51.29;100681.63;2380911;28;46300;-87
2022/06/24 00:48:13;;;;;;;;;3.25;2.50;;;;;24.82;51.66;100679.06;2384266;28;45253;-87
2022/06/24 00:49:26;;;;;;;;;6.25;4.00;;;;;24.83;51.41;100677.22;2393343;28;46427;-86
2022/06/24 00:50:40;;;;;;;;;3.25;3.25;;;;;24.82;51.64;100672.81;2385972;28;45212;-87
2022/06/24 00:51:50;;;;;;;;;3.75;3.75;;;;;24.81;51.38;100677.38;2378541;28;46986;-86
2022/06/24 00:53:00;;;;;;;;;3.50;3.50;;;;;24.79;51.77;100673.16;2378695;28;45410;-87
2022/06/24 00:54:14;;;;;;;;;4.50;4.00;;;;;24.76;51.72;100679.66;2391835;28;46222;-88
2022/06/24 00:55:30;;;;;;;;;4.00;4.00;;;;;24.75;52.33;100679.78;2389978;28;45203;-89
2022/06/24 00:56:42;;;;;;;;;5.00;4.75;;;;;24.70;51.27;100677.53;2383503;28;45619;-89
2022/06/24 00:57:52;;;;;;;;;4.75;4.50;;;;;24.70;51.25;100686.44;2384289;28;45421;-85
2022/06/24 00:59:06;;;;;;;;;5.00;3.00;;;;;24.71;51.28;100681.94;2384768;28;47145;-85
2022/06/24 01:00:17;;;;;;;;;4.75;4.25;;;;;24.70;51.99;100686.44;2383707;28;45300;-85
2022/06/24 01:01:32;;;;;;;;;4.50;4.00;;;;;24.71;51.36;100682.78;2383574;28;47056;-84
2022/06/24 01:02:43;;;;;;;;;3.75;3.75;;;;;24.71;52.14;100685.47;2384192;28;45131;-84
2022/06/24 01:03:55;;;;;;;;;4.00;4.00;;;;;24.73;51.74;100688.84;2382733;28;46425;-85
2022/06/24 01:05:07;;;;;;;;;4.00;4.00;;;;;24.73;51.72;100688.00;2383945;28;45225;-83
2022/06/24 01:06:17;;;;;;;;;3.00;3.00;;;;;24.73;51.67;100690.69;2380543;28;46693;-84
2022/06/24 01:07:28;;;;;;;;;3.50;3.50;;;;;24.73;51.87;100688.84;2384087;28;45413;-84
2022/06/24 01:08:38;;;;;;;;;3.25;3.25;;;;;24.71;52.67;100688.16;2383992;28;46269;-84
2022/06/24 01:09:48;;;;;;;;;4.50;4.00;;;;;24.72;52.42;100691.66;2384000;28;45396;-84
2022/06/24 01:10:59;;;;;;;;;4.00;3.50;;;;;24.69;51.63;100682.06;2383338;28;46271;-87
2022/06/24 01:12:11;;;;;;;;;3.00;3.00;;;;;24.69;51.76;100681.22;2384086;28;45250;-85
2022/06/24 01:13:23;;;;;;;;;7.00;5.00;;;;;24.69;51.96;100687.44;2383993;28;46012;-85
2022/06/24 01:14:34;;;;;;;;;4.75;4.00;;;;;24.71;52.54;100693.53;2382628;28;44785;-85
2022/06/24 01:15:44;;;;;;;;;3.00;3.00;;;;;24.70;52.16;100685.59;2383575;28;45441;-86
2022/06/24 01:16:54;;;;;;;;;4.25;3.50;;;;;24.71;52.11;100687.31;2375418;28;45216;-84
2022/06/24 01:18:05;;;;;;;;;4.00;3.50;;;;;24.71;52.61;100687.31;2379325;28;45326;-85
2022/06/24 01:19:16;;;;;;;;;4.75;4.00;;;;;24.69;52.11;100689.28;2392430;28;45298;-84
2022/06/24 01:20:26;;;;;;;;;5.00;5.00;;;;;24.69;52.02;100684.75;2390190;28;46477;-86
2022/06/24 01:21:41;;;;;;;;;5.75;4.00;;;;;24.69;52.14;100682.06;2383960;28;45235;-83
2022/06/24 01:22:52;;;;;;;;;4.25;4.00;;;;;24.69;52.67;100683.91;2383141;28;45459;-86
2022/06/24 01:24:18;;;;;;;;;4.00;3.50;;;;;24.70;51.91;100694.50;2383404;28;44821;-86
2022/06/24 01:25:31;;;;;;;;;5.00;3.50;;;;;24.70;52.31;100697.19;2392003;28;47192;-82
2022/06/24 01:26:44;;;;;;;;;2.50;2.50;;;;;24.69;52.46;100695.50;2390052;28;45336;-82
2022/06/24 01:27:54;;;;;;;;;3.50;3.50;;;;;24.70;52.27;100697.19;2383739;28;45412;-90
2022/06/24 01:29:05;;;;;;;;;3.25;2.50;;;;;24.69;52.25;100695.50;2383934;28;45230;-89
2022/06/24 01:30:15;;;;;;;;;4.75;3.00;;;;;24.68;52.61;100698.34;2392300;28;48063;-87
2022/06/24 01:31:26;;;;;;;;;5.50;5.25;;;;;24.65;52.60;100694.09;2389970;28;45275;-85
2022/06/24 01:32:36;;;;;;;;;3.00;3.00;;;;;24.61;52.07;100696.25;2383212;28;45310;-83
2022/06/24 01:33:46;;;;;;;;;3.00;3.00;;;;;24.63;52.38;100698.78;2386136;28;45381;-86
2022/06/24 01:34:57;;;;;;;;;4.00;4.00;;;;;24.62;52.13;100694.38;2383185;28;45194;-85
2022/06/24 01:36:07;;;;;;;;;5.75;5.50;;;;;24.63;52.28;100700.59;2382095;28;45284;-86
2022/06/24 01:37:17;;;;;;;;;5.75;4.50;;;;;24.63;52.07;100700.59;2383366;28;48195;-87
2022/06/24 01:38:28;;;;;;;;;4.00;4.00;;;;;24.60;51.84;100693.69;2388243;28;45287;-86
2022/06/24 01:39:38;;;;;;;;;6.75;5.25;;;;;24.63;52.58;100700.59;2382740;28;47351;-85
2022/06/24 01:40:49;;;;;;;;;4.25;4.25;;;;;24.63;52.11;100700.59;2383361;28;45184;-86
2022/06/24 01:41:59;;;;;;;;;4.25;4.25;;;;;24.63;52.41;100701.47;2383529;28;45491;-86
2022/06/24 01:43:10;;;;;;;;;5.25;4.75;;;;;24.63;52.62;100696.09;2383741;28;45231;-85
2022/06/24 01:44:24;;;;;;;;;3.75;3.75;;;;;24.64;52.95;100702.31;2382906;28;45367;-85
2022/06/24 01:45:34;;;;;;;;;4.50;4.50;;;;;24.61;52.96;100696.25;2383855;28;44676;-85
2022/06/24 01:46:45;;;;;;;;;4.00;4.00;;;;;24.59;53.70;100702.75;2391523;28;47328;-84
2022/06/24 01:47:55;;;;;;;;;4.00;3.00;;;;;24.57;52.66;100704.75;2390212;28;45208;-85
2022/06/24 01:49:06;;;;;;;;;5.50;5.50;;;;;24.58;52.56;100714.47;2382697;28;46841;-85
2022/06/24 01:50:16;;;;;;;;;4.25;3.25;;;;;24.57;54.06;100712.81;2383318;28;44667;-86
2022/06/24 01:51:27;;;;;;;;;5.50;5.00;;;;;24.57;54.91;100712.81;2374956;28;46956;-86
2022/06/24 01:52:38;;;;;;;;;3.25;3.25;;;;;24.54;54.41;100718.44;2371960;28;44719;-86
2022/06/24 01:53:48;;;;;;;;;6.00;4.00;;;;;24.49;55.95;100717.06;2376200;28;47304;-86
2022/06/24 01:54:59;;;;;;;;;5.00;5.00;;;;;24.43;54.88;100720.28;2385630;28;45302;-86
2022/06/24 01:56:09;;;;;;;;;5.00;4.25;;;;;24.35;55.90;100709.41;2389912;28;45421;-85
2022/06/24 01:57:19;;;;;;;;;4.75;4.50;;;;;24.28;56.21;100710.00;2383740;28;44764;-85
2022/06/24 01:58:30;;;;;;;;;4.00;3.50;;;;;24.21;54.90;100711.50;2383759;28;45328;-85
2022/06/24 01:59:40;;;;;;;;;5.00;4.00;;;;;24.17;56.32;100705.56;2383031;28;45207;-85
2022/06/24 02:00:50;;;;;;;;;6.50;4.25;;;;;24.12;56.64;100709.69;2382861;28;45274;-85
2022/06/24 02:02:01;;;;;;;;;4.00;4.00;;;;;24.08;56.42;100702.88;2383852;28;45376;-86
2022/06/24 02:03:11;;;;;;;;;7.00;5.00;;;;;24.02;56.96;100699.78;2383590;28;45432;-85
2022/06/24 02:04:21;;;;;;;;;7.00;4.75;;;;;24.00;55.83;100701.75;2383531;28;45435;-86
2022/06/24 02:05:32;;;;;;;;;5.25;5.25;;;;;24.00;56.26;100700.94;2382911;28;46121;-86
2022/06/24 02:06:42;;;;;;;;;5.50;4.75;;;;;23.97;56.71;100703.88;2383803;28;45227;-85
2022/06/24 02:07:53;;;;;;;;;4.00;4.00;;;;;23.95;56.75;100701.34;2383642;28;45352;-86
2022/06/24 02:09:05;;;;;;;;;4.25;4.25;;;;;23.94;56.92;100702.31;2385356;28;45214;-82
2022/06/24 02:13:28;;;;;;;;;4.25;4.25;;;;;23.91;57.52;100700.75;2383129;28;45843;-82
2022/06/24 02:14:39;;;;;;;;;6.50;6.50;;;;;23.91;57.92;100697.22;2384697;28;45437;-82
2022/06/24 02:15:49;;;;;;;;;5.25;5.25;;;;;23.90;57.65;100701.75;2385045;28;45460;-82
2022/06/24 02:16:59;;;;;;;;;5.00;5.00;;;;;23.88;57.51;100697.53;2385220;28;45266;-82
2022/06/24 02:18:10;;;;;;;;;3.50;2.75;;;;;23.86;58.14;100694.13;2377272;28;45367;-82
2022/06/24 02:19:21;;;;;;;;;6.25;5.75;;;;;23.85;57.92;100701.34;2379855;28;45377;-82
2022/06/24 02:20:31;;;;;;;;;5.00;5.00;;;;;23.87;57.51;100698.50;2384455;28;46120;-81
2022/06/24 02:21:41;;;;;;;;;6.00;5.00;;;;;23.83;58.18;100693.41;2385277;28;44679;-81
2022/06/24 02:22:52;;;;;;;;;7.00;5.75;;;;;23.82;58.34;100691.72;2384571;28;45422;-81
2022/06/24 02:24:03;;;;;;;;;4.00;4.00;;;;;23.78;58.71;100687.59;2384934;28;44624;-85
2022/06/24 02:25:14;;;;;;;;;5.00;5.00;;;;;23.74;58.68;100694.25;2384711;28;46613;-85
2022/06/24 02:26:25;;;;;;;;;7.00;5.00;;;;;23.71;58.36;100699.88;2385212;28;45227;-84
2022/06/24 02:27:36;;;;;;;;;6.00;4.25;;;;;23.66;59.26;100704.81;2385113;28;46313;-86
2022/06/24 02:28:47;;;;;;;;;5.25;3.75;;;;;23.64;58.76;100710.31;2385215;28;45404;-86
2022/06/24 02:29:57;;;;;;;;;8.25;6.00;;;;;23.63;59.56;100705.13;2384999;28;46454;-83
2022/06/24 02:31:08;;;;;;;;;5.50;5.50;;;;;23.60;59.78;100693.69;2384610;28;45388;-82
2022/06/24 02:32:18;;;;;;;;;6.50;5.75;;;;;23.55;59.97;100693.25;2385073;28;45390;-82
2022/06/24 02:33:29;;;;;;;;;7.50;5.75;;;;;23.49;60.25;100691.94;2390107;28;45559;-79
2022/06/24 02:34:39;;;;;;;;;3.75;3.75;;;;;23.39;58.55;100685.66;2375836;28;45420;-82
2022/06/24 02:35:50;;;;;;;;;5.00;4.00;;;;;23.27;60.09;100683.09;2382981;28;44740;-80
2022/06/24 02:37:00;;;;;;;;;4.50;4.50;;;;;23.14;59.13;100667.25;2393030;28;46264;-81
2022/06/24 02:38:11;;;;;;;;;6.00;5.50;;;;;23.06;59.75;100669.78;2386975;28;45426;-80
2022/06/24 02:39:21;;;;;;;;;5.25;5.25;;;;;23.02;60.59;100674.53;2391230;28;46403;-80
2022/06/24 02:40:47;;;;;;;;;4.00;4.00;;;;;22.98;60.21;100677.63;2383368;28;45394;-80
2022/06/24 02:41:57;;;;;;;;;4.75;4.75;;;;;22.91;61.31;100669.28;2384625;28;45409;-80
2022/06/24 02:43:12;;;;;;;;;3.00;3.00;;;;;22.86;61.33;100680.41;2385150;28;45294;-80
2022/06/24 02:44:22;;;;;;;;;5.25;5.25;;;;;22.82;61.53;100681.63;2393524;28;47109;-80
2022/06/24 02:45:35;;;;;;;;;4.50;4.50;;;;;22.80;60.98;100683.59;2391313;28;44593;-80
2022/06/24 02:46:45;;;;;;;;;4.00;4.00;;;;;22.76;61.30;100672.31;2381108;28;46698;-81
2022/06/24 02:47:56;;;;;;;;;5.00;5.00;;;;;22.72;61.53;100676.22;2384750;28;45223;-80
2022/06/24 02:49:06;;;;;;;;;5.25;5.00;;;;;22.67;61.21;100673.91;2384698;28;45227;-80
2022/06/24 02:50:16;;;;;;;;;4.00;4.00;;;;;22.64;61.55;100673.34;2384985;28;45283;-80
2022/06/24 02:51:27;;;;;;;;;4.50;3.25;;;;;22.62;62.06;100665.41;2384954;28;46437;-81
2022/06/24 02:52:37;;;;;;;;;4.50;4.50;;;;;22.60;62.07;100673.59;2385034;28;45207;-81
2022/06/24 02:53:47;;;;;;;;;5.00;3.00;;;;;22.59;62.42;100671.88;2384926;28;45195;-80
2022/06/24 02:54:58;;;;;;;;;5.00;5.00;;;;;22.58;62.47;100662.16;2385016;28;45345;-80
2022/06/24 02:56:12;;;;;;;;;5.75;5.00;;;;;22.58;62.40;100669.34;2384724;28;46731;-81
2022/06/24 02:57:22;;;;;;;;;6.00;5.00;;;;;22.56;62.43;100665.97;2385046;28;45321;-81
2022/06/24 02:58:33;;;;;;;;;6.00;5.00;;;;;22.55;62.10;100669.59;2384813;28;46273;-81
2022/06/24 02:59:43;;;;;;;;;6.00;5.50;;;;;22.56;62.58;100671.31;2392579;28;45164;-82
2022/06/24 03:00:54;;;;;;;;;6.25;4.75;;;;;22.53;62.71;100667.06;2391034;28;45246;-81
2022/06/24 03:02:04;;;;;;;;;4.25;4.25;;;;;22.48;62.75;100659.44;2384953;28;45275;-81
2022/06/24 03:03:18;;;;;;;;;8.25;5.25;;;;;22.45;62.91;100658.84;2384963;28;45329;-82
2022/06/24 03:04:28;;;;;;;;;4.50;4.50;;;;;22.43;63.39;100661.66;2383912;28;45355;-82
2022/06/24 03:05:39;;;;;;;;;7.00;5.25;;;;;22.40;63.30;100667.25;2383926;28;46630;-82
2022/06/24 03:06:49;;;;;;;;;5.25;5.00;;;;;22.38;63.09;100669.22;2385022;28;45324;-82
2022/06/24 03:08:00;;;;;;;;;5.00;5.00;;;;;22.34;63.31;100667.78;2384698;28;45330;-81
2022/06/24 03:09:10;;;;;;;;;5.50;5.50;;;;;22.34;63.51;100659.75;2380731;28;44739;-81
2022/06/24 03:10:21;;;;;;;;;5.25;5.25;;;;;22.36;62.95;100655.97;2375382;28;45397;-81
2022/06/24 03:11:31;;;;;;;;;5.75;5.75;;;;;22.36;62.84;100661.34;2384199;28;44632;-82
2022/06/24 03:12:42;;;;;;;;;5.00;5.00;;;;;22.36;63.00;100658.66;2384666;28;46501;-82
2022/06/24 03:13:52;;;;;;;;;4.50;4.50;;;;;22.35;63.17;100658.75;2384872;28;44684;-83
2022/06/24 03:15:03;;;;;;;;;4.50;4.50;;;;;22.33;63.46;100658.06;2384781;28;45456;-84
2022/06/24 03:16:13;;;;;;;;;5.00;5.00;;;;;22.33;63.32;100666.09;2384817;28;44605;-83
2022/06/24 03:17:24;;;;;;;;;5.00;5.00;;;;;22.33;63.75;100660.72;2384647;28;45309;-83
2022/06/24 03:18:34;;;;;;;;;6.00;6.00;;;;;22.31;63.18;100651.97;2384841;28;45211;-83
2022/06/24 03:19:44;;;;;;;;;5.00;4.00;;;;;22.30;63.49;100647.63;2383773;28;45422;-83
2022/06/24 03:20:55;;;;;;;;;4.00;4.00;;;;;22.28;63.76;100641.53;2384732;28;46481;-83
2022/06/24 03:22:05;;;;;;;;;7.50;5.00;;;;;22.25;63.33;100650.66;2393143;28;47696;-85
2022/06/24 03:23:16;;;;;;;;;5.00;4.75;;;;;22.19;62.85;100645.84;2390384;28;45248;-84
2022/06/24 03:24:26;;;;;;;;;7.00;5.25;;;;;22.19;63.13;100644.03;2384602;28;45340;-84
2022/06/24 03:25:37;;;;;;;;;4.75;4.75;;;;;22.16;63.63;100646.94;2383759;28;44656;-83
2022/06/24 03:26:47;;;;;;;;;6.00;6.00;;;;;22.19;63.28;100652.06;2384096;28;46232;-85
2022/06/24 03:28:00;;;;;;;;;5.75;5.75;;;;;22.19;63.53;100644.03;2384823;28;44576;-85
2022/06/24 03:29:10;;;;;;;;;6.00;5.25;;;;;22.19;63.95;100652.06;2383929;28;45433;-85
2022/06/24 03:30:21;;;;;;;;;5.50;5.50;;;;;22.18;64.13;100650.34;2393379;28;45381;-85
2022/06/24 03:31:31;;;;;;;;;5.75;5.25;;;;;22.13;63.62;100648.06;2390977;28;46094;-82
2022/06/24 03:32:42;;;;;;;;;8.00;6.00;;;;;22.12;64.11;100650.88;2384727;28;45298;-82
2022/06/24 03:33:53;;;;;;;;;5.00;5.00;;;;;22.12;64.15;100657.09;2388575;28;45573;-82
2022/06/24 03:35:04;;;;;;;;;7.00;7.00;;;;;22.11;64.45;100652.69;2383836;28;44652;-83
2022/06/24 03:36:15;;;;;;;;;6.50;6.50;;;;;22.12;64.68;100653.56;2384010;28;46748;-83
2022/06/24 03:37:26;;;;;;;;;7.00;7.00;;;;;22.15;64.46;100655.94;2384734;28;45219;-84
2022/06/24 03:38:36;;;;;;;;;6.25;6.25;;;;;22.12;64.38;100656.22;2383914;28;46426;-84
2022/06/24 03:39:47;;;;;;;;;7.25;7.25;;;;;22.13;64.42;100653.41;2384052;28;45242;-82
2022/06/24 03:40:57;;;;;;;;;5.25;5.25;;;;;22.12;64.10;100658.91;2387585;28;45218;-82
2022/06/24 03:42:07;;;;;;;;;5.75;4.50;;;;;22.13;64.46;100649.88;2394060;28;45183;-82
2022/06/24 03:43:18;;;;;;;;;4.75;4.00;;;;;22.15;63.82;100647.91;2384769;28;45596;-83
2022/06/24 03:44:28;;;;;;;;;8.00;5.75;;;;;22.17;64.60;100655.84;2384681;28;44787;-82
2022/06/24 03:45:39;;;;;;;;;5.25;5.25;;;;;22.17;64.44;100656.69;2384464;28;45513;-81
2022/06/24 03:46:49;;;;;;;;;7.75;6.25;;;;;22.16;64.07;100644.28;2384241;28;44802;-81
2022/06/24 03:48:00;;;;;;;;;6.75;6.00;;;;;22.14;64.09;100632.84;2383855;28;45246;-81
2022/06/24 03:49:10;;;;;;;;;7.25;6.75;;;;;22.12;64.20;100638.34;2384505;28;45417;-81
2022/06/24 03:50:20;;;;;;;;;7.75;6.75;;;;;22.11;64.23;100635.78;2384573;28;46254;-81
2022/06/24 03:51:31;;;;;;;;;7.25;7.00;;;;;22.09;64.29;100633.25;2384587;28;44691;-85
2022/06/24 03:52:41;;;;;;;;;6.00;6.00;;;;;22.09;64.50;100637.75;2384430;28;46412;-86
2022/06/24 03:53:52;;;;;;;;;5.25;5.25;;;;;22.05;64.56;100634.47;2384651;28;45343;-86
2022/06/24 03:55:02;;;;;;;;;8.25;5.75;;;;;22.05;64.46;100644.34;2384382;28;46281;-86
2022/06/24 03:56:13;;;;;;;;;7.00;7.00;;;;;22.03;64.45;100645.31;2392449;28;44771;-81
2022/06/24 03:57:23;;;;;;;;;8.00;6.00;;;;;22.03;64.31;100637.28;2390736;28;45449;-82
2022/06/24 03:58:34;;;;;;;;;6.00;5.25;;;;;22.05;63.76;100639.00;2393184;28;44749;-81
2022/06/24 03:59:44;;;;;;;;;9.00;7.50;;;;;22.06;63.91;100646.03;2389964;28;46693;-81
2022/06/24 04:01:01;;;;;;;;;7.75;7.75;;;;;22.09;64.14;100640.41;2384432;28;45215;-81
2022/06/24 04:02:11;;;;;;;;;7.00;7.00;;;;;22.09;64.03;100633.25;2384361;28;46183;-82
2022/06/24 04:03:22;;;;;;;;;5.75;5.75;;;;;22.09;64.31;100633.25;2384393;28;45270;-82
2022/06/24 04:04:32;;;;;;;;;8.25;7.00;;;;;22.11;63.87;100635.78;2382868;28;46608;-82
2022/06/24 04:05:43;;;;;;;;;6.75;6.75;;;;;22.07;64.48;100637.03;2383937;28;45236;-81
2022/06/24 04:06:53;;;;;;;;;7.75;6.25;;;;;22.07;63.73;100639.69;2383954;28;46406;-82
2022/06/24 04:08:04;;;;;;;;;6.00;6.00;;;;;22.07;64.39;100645.06;2384209;28;45295;-83
2022/06/24 04:09:14;;;;;;;;;5.75;5.50;;;;;22.08;64.24;100646.72;2384187;28;45231;-81
2022/06/24 04:10:25;;;;;;;;;6.25;6.25;;;;;22.08;64.31;100641.38;2384404;28;45218;-81
2022/06/24 04:11:36;;;;;;;;;7.50;5.00;;;;;22.09;63.60;100643.09;2384433;28;45279;-80
2022/06/24 04:12:46;;;;;;;;;8.25;6.00;;;;;22.11;64.33;100646.50;2384445;28;45230;-80
2022/06/24 04:13:59;;;;;;;;;5.50;4.50;;;;;22.12;63.88;100637.50;2383763;28;45531;-80
2022/06/24 04:15:19;;;;;;;;;7.50;6.25;;;;;22.13;63.97;100645.38;2384441;28;45243;-80
2022/06/24 04:16:29;;;;;;;;;5.25;5.25;;;;;22.13;63.65;100644.53;2384396;28;46249;-80
2022/06/24 04:17:40;;;;;;;;;7.00;6.00;;;;;22.11;64.31;100646.50;2379520;28;45259;-80
2022/06/24 04:18:51;;;;;;;;;6.25;6.25;;;;;22.08;63.79;100646.72;2375428;28;46842;-81
2022/06/24 04:20:01;;;;;;;;;4.50;4.25;;;;;22.08;64.25;100646.72;2375604;28;45364;-81
2022/06/24 04:21:13;;;;;;;;;7.00;7.00;;;;;22.07;64.19;100645.06;2381959;28;45294;-81
2022/06/24 04:22:23;;;;;;;;;7.75;6.00;;;;;22.07;64.39;100651.25;2392005;28;44637;-81
2022/06/24 04:23:33;;;;;;;;;6.50;5.75;;;;;22.09;63.80;100656.47;2383564;28;47108;-85
2022/06/24 04:24:44;;;;;;;;;7.75;6.00;;;;;22.09;64.17;100659.16;2384256;28;45260;-83
2022/06/24 04:25:54;;;;;;;;;6.25;6.25;;;;;22.08;64.19;100657.44;2384037;28;46392;-82
2022/06/24 04:27:05;;;;;;;;;5.00;5.00;;;;;22.08;64.08;100657.44;2383705;28;45480;-79
2022/06/24 04:28:16;;;;;;;;;7.00;6.75;;;;;22.09;64.26;100656.47;2384237;28;46056;-79
2022/06/24 04:29:26;;;;;;;;;7.00;6.25;;;;;22.08;64.26;100654.75;2384352;28;44598;-79
2022/06/24 04:30:37;;;;;;;;;4.75;4.75;;;;;22.07;64.40;100655.75;2380178;28;47847;-79
2022/06/24 04:31:47;;;;;;;;;5.50;5.50;;;;;22.07;63.64;100659.28;2374513;28;45324;-79
2022/06/24 04:32:57;;;;;;;;;2.75;2.25;;;;;22.05;64.29;100653.19;2384109;28;46357;-80
2022/06/24 04:34:08;;;;;;;;;5.75;5.00;;;;;22.07;64.23;100661.97;2388686;28;44751;-79
2022/06/24 04:35:18;;;;;;;;;4.00;4.00;;;;;22.06;63.34;100659.41;2384139;28;45314;-79
2022/06/24 04:36:28;;;;;;;;;6.25;6.25;;;;;22.08;63.22;100657.44;2384468;28;45283;-79
2022/06/24 04:37:40;;;;;;;;;5.00;5.00;;;;;22.12;63.46;100658.91;2383834;28;46539;-79
2022/06/24 04:38:50;;;;;;;;;3.75;3.25;;;;;22.17;63.37;100659.38;2383571;28;45462;-79
2022/06/24 04:40:01;;;;;;;;;7.00;7.00;;;;;22.21;64.14;100659.94;2383594;28;46257;-79
2022/06/24 04:41:13;;;;;;;;;4.00;4.00;;;;;22.24;62.75;100657.88;2381952;28;45456;-79
2022/06/24 04:42:23;;;;;;;;;7.75;6.00;;;;;22.29;63.56;100654.81;2382812;28;45849;-79
2022/06/24 04:43:34;;;;;;;;;6.50;5.50;;;;;22.30;63.65;100652.97;2384020;28;45320;-79
2022/06/24 04:44:44;;;;;;;;;5.50;5.00;;;;;22.29;63.84;100651.28;2391489;28;48055;-80
2022/06/24 04:45:54;;;;;;;;;6.00;6.00;;;;;22.30;63.55;100655.66;2389754;28;45309;-80
2022/06/24 04:47:05;;;;;;;;;6.00;6.00;;;;;22.30;64.00;100650.31;2384196;28;45254;-79
2022/06/24 04:48:15;;;;;;;;;7.75;7.75;;;;;22.29;63.58;100649.44;2383314;28;45180;-79
2022/06/24 04:49:26;;;;;;;;;7.00;5.00;;;;;22.30;63.77;100650.31;2382836;28;45611;-80
2022/06/24 04:50:36;;;;;;;;;5.50;5.50;;;;;22.31;64.12;100646.63;2384198;28;45210;-80
2022/06/24 04:51:47;;;;;;;;;7.00;5.25;;;;;22.33;64.34;100652.69;2383332;28;45369;-80
2022/06/24 04:52:57;;;;;;;;;6.25;6.25;;;;;22.34;63.83;100651.72;2384304;28;45457;-79
2022/06/24 04:54:07;;;;;;;;;8.00;6.00;;;;;22.30;63.97;100648.44;2384162;28;45566;-80
2022/06/24 04:55:19;;;;;;;;;8.75;6.00;;;;;22.29;64.34;100649.44;2381591;28;45498;-81
2022/06/24 04:56:29;;;;;;;;;7.00;7.00;;;;;22.28;64.55;100649.56;2383397;28;45616;-81
2022/06/24 04:57:40;;;;;;;;;6.25;6.25;;;;;22.25;64.08;100648.00;2384322;28;45165;-81
2022/06/24 04:58:50;;;;;;;;;6.50;6.00;;;;;22.22;63.96;100649.13;2383990;28;46701;-81
2022/06/24 05:00:00;;;;;;;;;8.00;8.00;;;;;22.20;64.11;100660.94;2384208;28;45339;-81
2022/06/24 05:01:11;;;;;;;;;7.75;5.25;;;;;22.18;63.74;100653.03;2383246;28;45401;-81
2022/06/24 05:02:21;;;;;;;;;6.50;6.00;;;;;22.18;64.76;100657.50;2383741;28;45289;-81
2022/06/24 05:03:32;;;;;;;;;7.00;5.00;;;;;22.15;63.58;100658.63;2383720;28;45504;-81
2022/06/24 05:04:42;;;;;;;;;5.75;5.75;;;;;22.21;63.68;100662.63;2384277;28;45317;-81
2022/06/24 05:05:52;;;;;;;;;6.75;6.75;;;;;22.23;64.28;100653.47;2383846;28;46353;-81
2022/06/24 05:07:04;;;;;;;;;7.00;5.25;;;;;22.25;64.26;100658.69;2384118;28;44534;-82
2022/06/24 05:08:14;;;;;;;;;7.00;7.00;;;;;22.28;64.38;100660.25;2383544;28;45399;-81
2022/06/24 05:09:25;;;;;;;;;9.25;9.00;;;;;22.26;63.92;100661.25;2384292;28;45243;-81
2022/06/24 05:10:35;;;;;;;;;8.25;7.00;;;;;22.28;63.78;100657.59;2383039;28;46987;-81
2022/06/24 05:11:48;;;;;;;;;7.75;6.50;;;;;22.23;64.50;100658.84;2383411;28;45445;-81
2022/06/24 05:12:59;;;;;;;;;7.75;7.75;;;;;22.19;64.17;100649.38;2382584;28;45571;-81
2022/06/24 05:14:09;;;;;;;;;8.00;8.00;;;;;22.14;64.24;100648.91;2382545;28;45329;-84
2022/06/24 05:15:19;;;;;;;;;10.25;8.25;;;;;22.11;63.78;100651.84;2378465;28;45425;-82
2022/06/24 05:16:30;;;;;;;;;8.00;8.00;;;;;22.08;64.54;100647.59;2384033;28;45298;-82
2022/06/24 05:17:40;;;;;;;;;7.75;6.50;;;;;22.06;64.27;100652.22;2383704;28;45382;-82
2022/06/24 05:18:50;;;;;;;;;7.25;7.00;;;;;22.06;63.97;100646.03;2383772;28;45411;-83
2022/06/24 05:20:01;;;;;;;;;7.00;5.00;;;;;22.06;64.14;100648.69;2383840;28;45393;-82
2022/06/24 05:21:11;;;;;;;;;6.50;4.50;;;;;22.05;63.56;100644.34;2384016;28;44618;-80
2022/06/24 05:22:21;;;;;;;;;8.25;6.75;;;;;22.05;64.31;100647.84;2392433;28;46860;-81
2022/06/24 05:23:32;;;;;;;;;6.00;6.00;;;;;22.08;64.46;100652.09;2389519;28;44774;-80
2022/06/24 05:24:42;;;;;;;;;6.25;4.75;;;;;22.08;63.79;100652.94;2375156;28;45374;-80
2022/06/24 05:25:52;;;;;;;;;6.75;6.00;;;;;22.08;63.91;100652.94;2380280;28;45509;-80
2022/06/24 05:27:03;;;;;;;;;6.00;5.25;;;;;22.12;63.82;100656.22;2379780;28;46275;-81
2022/06/24 05:28:13;;;;;;;;;9.75;5.25;;;;;22.14;64.22;100656.94;2375929;28;44642;-81
2022/06/24 05:29:24;;;;;;;;;7.00;7.00;;;;;22.13;64.79;100657.91;2383902;28;46241;-80
2022/06/24 05:30:34;;;;;;;;;6.00;6.00;;;;;22.15;63.56;100662.16;2383849;28;45229;-83
2022/06/24 05:31:45;;;;;;;;;5.50;5.50;;;;;22.18;63.97;100657.50;2382954;28;47981;-83
2022/06/24 05:32:55;;;;;;;;;7.25;6.50;;;;;22.19;64.11;100654.72;2377411;28;44587;-83
2022/06/24 05:34:08;;;;;;;;;7.00;7.00;;;;;22.21;64.26;100659.94;2382817;28;45433;-83
2022/06/24 05:35:19;;;;;;;;;9.00;7.50;;;;;22.22;63.63;100656.31;2383352;28;45262;-83